Repubblicadelbrasile — IBZB — position and weather

sailwx.info

Track history (hours):
 
Tides and Currents Weather Stations Pressure Air Temp Water Temp Dewpoint Dewpoint Depression Visibility Wind Speed Wind Dir Waves Ship Positions

Repubblicadelbrasile

Last reported at 2017-Oct-14 12:16 UTC. Time now 2017-Oct-18 05:56 UTC.
Position N 05°28' E 000°34'.

Length 210 m; draft 9 m.

Type: Ship (hazmat cat C). MMSI: 247310000.

Date/timePositionNaut miles runAvg speedWind from/ knotsBaromVisibWave heightAir tempDewpointWater temp
2017-Oct-14 12:16N 05°28' E 000°34'819.8
2017-Oct-14 11:52N 05°25' E 000°26'719.7
2017-Oct-14 11:30N 05°22' E 000°20'1019.6
2017-Oct-14 11:01N 05°20' E 000°10'1019.8
2017-Oct-14 10:30N 05°16' E 000°01'1019.8
2017-Oct-14 10:00N 05°13' W 000°08'12819.4
2017-Oct-14 03:27N 04°27' W 002°08'818.9
2017-Oct-14 03:00N 04°24' W 002°16'918.8
2017-Oct-14 02:30N 04°21' W 002°25'918.4
2017-Oct-14 02:00N 04°20' W 002°34'918.5
2017-Oct-14 01:30N 04°21' W 002°43'918.6
2017-Oct-14 01:00N 04°21' W 002°53'918.7
2017-Oct-14 00:30N 04°23' W 003°02'1018.8
2017-Oct-13 23:58N 04°26' W 003°11'  
2017-Oct-05 22:55N 27°07' W 014°48'1718.9
2017-Oct-05 21:59N 27°23' W 014°40'919.0
2017-Oct-05 21:30N 27°31' W 014°36'918.7
2017-Oct-05 21:00N 27°40' W 014°31'918.9
2017-Oct-05 20:30N 27°48' W 014°27'918.9
2017-Oct-05 20:00N 27°57' W 014°22'918.6
2017-Oct-05 19:30N 28°01' W 014°13'918.8
2017-Oct-05 19:00N 28°05' W 014°03'918.5
2017-Oct-05 18:30N 28°08' W 013°53'1217.8
2017-Oct-05 17:50N 28°19' W 013°47'618.7
2017-Oct-05 17:30N 28°25' W 013°44'1018.6
2017-Oct-05 17:00N 28°34' W 013°41'2818.7
2017-Oct-05 15:31N 28°57' W 013°24'918.6
2017-Oct-05 15:01N 29°06' W 013°20'1218.2
2017-Oct-05 14:23N 29°16' W 013°13'718.4
2017-Oct-05 13:59N 29°21' W 013°08'1618.0
2017-Oct-05 13:07N 29°33' W 012°56'217.8
2017-Oct-05 13:01N 29°34' W 012°54'1117.7
2017-Oct-05 12:23N 29°42' W 012°46'3518.2
2017-Oct-05 10:26N 30°09' W 012°19'2318.0
2017-Oct-05 09:10N 30°26' W 012°02'317.6
2017-Oct-05 09:00N 30°28' W 011°59'1117.5
2017-Oct-05 08:22N 30°37' W 011°51'616.2
2017-Oct-05 08:00N 30°41' W 011°46'815.8
2017-Oct-05 07:30N 30°47' W 011°40'816.1
2017-Oct-05 07:00N 30°53' W 011°34'815.9
2017-Oct-05 06:30N 30°59' W 011°28'7815.9
2017-Oct-05 01:36N 31°58' W 010°27'215.9
2017-Oct-05 01:27N 31°59' W 010°26'715.9
2017-Oct-05 01:00N 32°05' W 010°20'2115.7
2017-Oct-04 23:39N 32°20' W 010°04'816.1
2017-Oct-04 23:10N 32°26' W 009°57'416.3
2017-Oct-04 22:54N 32°29' W 009°54'1116.5
2017-Oct-04 22:14N 32°37' W 009°45'1016.5
2017-Oct-04 21:39N 32°45' W 009°37'216.4
2017-Oct-04 21:30N 32°46' W 009°35'3115.9
2017-Oct-04 19:33N 33°08' W 009°08'516.3
2017-Oct-04 19:13N 33°11' W 009°03'516.2
2017-Oct-04 18:55N 33°14' W 008°59'2715.5
2017-Oct-04 17:12N 33°28' W 008°31'315.8
2017-Oct-04 17:00N 33°29' W 008°28'3315.8
2017-Oct-04 14:53N 33°41' W 007°50'816.0
2017-Oct-04 14:25N 33°42' W 007°41'612.1
2017-Oct-04 13:54N 33°40' W 007°34'  
Track history (hours):
 
Tides and Currents Weather Stations Pressure Air Temp Water Temp Dewpoint Dewpoint Depression Visibility Wind Speed Wind Dir Waves Ship Positions

Repubblicadelbrasile

Last reported at 2017-Oct-14 12:16 UTC. Time now 2017-Oct-18 05:56 UTC.
Position N 05°28' E 000°34'.

Length 210 m; draft 9 m.

Type: Ship (hazmat cat C). MMSI: 247310000.

Date/timePositionNaut miles runAvg speedWind from/ knotsBaromVisibWave heightAir tempDewpointWater temp
2017-Oct-14 12:16N 05°28' E 000°34'819.8
2017-Oct-14 11:52N 05°25' E 000°26'719.7
2017-Oct-14 11:30N 05°22' E 000°20'1019.6
2017-Oct-14 11:01N 05°20' E 000°10'1019.8
2017-Oct-14 10:30N 05°16' E 000°01'1019.8
2017-Oct-14 10:00N 05°13' W 000°08'12819.4
2017-Oct-14 03:27N 04°27' W 002°08'818.9
2017-Oct-14 03:00N 04°24' W 002°16'918.8
2017-Oct-14 02:30N 04°21' W 002°25'918.4
2017-Oct-14 02:00N 04°20' W 002°34'918.5
2017-Oct-14 01:30N 04°21' W 002°43'918.6
2017-Oct-14 01:00N 04°21' W 002°53'918.7
2017-Oct-14 00:30N 04°23' W 003°02'1018.8
2017-Oct-13 23:58N 04°26' W 003°11'  
2017-Oct-05 22:55N 27°07' W 014°48'1718.9
2017-Oct-05 21:59N 27°23' W 014°40'919.0
2017-Oct-05 21:30N 27°31' W 014°36'918.7
2017-Oct-05 21:00N 27°40' W 014°31'918.9
2017-Oct-05 20:30N 27°48' W 014°27'918.9
2017-Oct-05 20:00N 27°57' W 014°22'918.6
2017-Oct-05 19:30N 28°01' W 014°13'918.8
2017-Oct-05 19:00N 28°05' W 014°03'918.5
2017-Oct-05 18:30N 28°08' W 013°53'1217.8
2017-Oct-05 17:50N 28°19' W 013°47'618.7
2017-Oct-05 17:30N 28°25' W 013°44'1018.6
2017-Oct-05 17:00N 28°34' W 013°41'2818.7
2017-Oct-05 15:31N 28°57' W 013°24'918.6
2017-Oct-05 15:01N 29°06' W 013°20'1218.2
2017-Oct-05 14:23N 29°16' W 013°13'718.4
2017-Oct-05 13:59N 29°21' W 013°08'1618.0
2017-Oct-05 13:07N 29°33' W 012°56'217.8
2017-Oct-05 13:01N 29°34' W 012°54'1117.7
2017-Oct-05 12:23N 29°42' W 012°46'3518.2
2017-Oct-05 10:26N 30°09' W 012°19'2318.0
2017-Oct-05 09:10N 30°26' W 012°02'317.6
2017-Oct-05 09:00N 30°28' W 011°59'1117.5
2017-Oct-05 08:22N 30°37' W 011°51'616.2
2017-Oct-05 08:00N 30°41' W 011°46'815.8
2017-Oct-05 07:30N 30°47' W 011°40'816.1
2017-Oct-05 07:00N 30°53' W 011°34'815.9
2017-Oct-05 06:30N 30°59' W 011°28'7815.9
2017-Oct-05 01:36N 31°58' W 010°27'215.9
2017-Oct-05 01:27N 31°59' W 010°26'715.9
2017-Oct-05 01:00N 32°05' W 010°20'2115.7
2017-Oct-04 23:39N 32°20' W 010°04'816.1
2017-Oct-04 23:10N 32°26' W 009°57'416.3
2017-Oct-04 22:54N 32°29' W 009°54'1116.5
2017-Oct-04 22:14N 32°37' W 009°45'1016.5
2017-Oct-04 21:39N 32°45' W 009°37'216.4
2017-Oct-04 21:30N 32°46' W 009°35'3115.9
2017-Oct-04 19:33N 33°08' W 009°08'516.3
2017-Oct-04 19:13N 33°11' W 009°03'516.2
2017-Oct-04 18:55N 33°14' W 008°59'2715.5
2017-Oct-04 17:12N 33°28' W 008°31'315.8
2017-Oct-04 17:00N 33°29' W 008°28'3315.8
2017-Oct-04 14:53N 33°41' W 007°50'816.0
2017-Oct-04 14:25N 33°42' W 007°41'612.1
2017-Oct-04 13:54N 33°40' W 007°34'  

Dump ship's entire track history